Terminal Aerodrome Forecast
Issued by NWS

Home | Current Version | Previous Version | Text Only | Print | Product List | Glossary On
Versions: 1 2 3 4 5 6 7 8 9 10 11 12 13 14 15
000
FTUS46 KPDT 110500
TAFDLS
TAF
KDLS 110520Z 1106/1206 VRB05KT P6SM SKC
     FM110900 31007KT P6SM SKC
     FM112100 32008G15KT P6SM SCT250=

USA.gov is the U.S. government's official web portal to all federal, state and local government web resources and services.